Time;durP1;ratioP1;P1;durP2;ratioP2;P2;SDS_P1;SDS_P2;PMS_P1;PMS_P2;Temp;Humidity;BMP_temperature;BMP_pressure;BME280_temperature;BME280_humidity;BME280_pressure;Samples;Min_cycle;Max_cycle;Signal;HPM_P1;HPM_P2
2022/03/10 00:01:43;;;;;;;23.45;13.73;;;3.90;69.40;;;;;;5052203;28;20027;-60
2022/03/10 00:04:09;;;;;;;20.80;13.00;;;3.80;69.70;;;;;;5051193;28;20017;-60
2022/03/10 00:06:35;;;;;;;22.17;13.23;;;3.80;70.60;;;;;;5071719;28;20074;-60
2022/03/10 00:09:11;;;;;;;46.10;24.63;;;3.70;71.40;;;;;;4747054;28;10000729;-59
2022/03/10 00:11:37;;;;;;;237.30;127.05;;;3.70;70.00;;;;;;5048219;28;20291;-59
2022/03/10 00:14:02;;;;;;;78.10;46.45;;;3.90;75.10;;;;;;5048993;28;20029;-60
2022/03/10 00:16:28;;;;;;;29.52;15.50;;;4.00;70.50;;;;;;5049092;28;20850;-60
2022/03/10 00:18:54;;;;;;;23.33;13.98;;;4.00;67.70;;;;;;5049274;28;20056;-61
2022/03/10 00:21:19;;;;;;;23.90;12.95;;;4.00;67.90;;;;;;5050088;28;20037;-61
2022/03/10 00:23:45;;;;;;;27.52;13.18;;;3.90;68.50;;;;;;5053397;28;20120;-60
2022/03/10 00:26:11;;;;;;;26.05;14.68;;;3.80;69.20;;;;;;5068366;28;20032;-60
2022/03/10 00:28:36;;;;;;;22.73;12.93;;;3.70;69.40;;;;;;5073052;28;20025;-62
2022/03/10 00:31:02;;;;;;;23.85;13.38;;;3.60;69.40;;;;;;5073711;28;20029;-60
2022/03/10 00:33:27;;;;;;;24.70;13.73;;;3.50;69.30;;;;;;5073472;28;20669;-61
2022/03/10 00:35:53;;;;;;;26.80;13.35;;;3.50;70.70;;;;;;5072312;28;20109;-61
2022/03/10 00:38:19;;;;;;;24.02;13.35;;;3.40;70.70;;;;;;5071486;28;20040;-59
2022/03/10 00:40:45;;;;;;;22.17;12.18;;;3.30;71.00;;;;;;5071378;28;20066;-59
2022/03/10 00:43:14;;;;;;;21.90;11.80;;;3.20;71.80;;;;;;5072579;28;20100;-60
2022/03/10 00:45:40;;;;;;;24.48;13.82;;;3.20;71.40;;;;;;5071137;28;20115;-58
2022/03/10 00:48:07;;;;;;;23.83;13.10;;;3.20;72.10;;;;;;5072595;28;20051;-59
2022/03/10 00:50:32;;;;;;;24.02;13.70;;;3.20;72.00;;;;;;5072208;28;20027;-56
2022/03/10 00:52:59;;;;;;;23.90;14.15;;;3.10;72.60;;;;;;5072483;22;20045;-64
2022/03/10 00:55:25;;;;;;;24.23;13.48;;;3.10;72.50;;;;;;5052420;28;20029;-64
2022/03/10 00:57:51;;;;;;;25.05;14.23;;;3.10;72.30;;;;;;5054905;28;20032;-65
2022/03/10 01:00:19;;;;;;;28.38;14.05;;;3.10;72.30;;;;;;5055095;28;20032;-64
2022/03/10 01:02:45;;;;;;;25.75;14.57;;;3.00;72.80;;;;;;5053709;28;20079;-63
2022/03/10 01:05:11;;;;;;;24.85;13.35;;;3.00;72.80;;;;;;5055188;28;20453;-62
2022/03/10 01:07:37;;;;;;;25.38;12.27;;;3.00;72.70;;;;;;5055088;28;20146;-64
2022/03/10 01:10:05;;;;;;;24.33;13.32;;;2.90;72.70;;;;;;5053437;28;20036;-64
2022/03/10 01:12:31;;;;;;;24.90;13.75;;;2.90;72.60;;;;;;5053660;28;20029;-63
2022/03/10 01:14:58;;;;;;;23.23;14.15;;;2.90;73.40;;;;;;5053213;28;20568;-64
2022/03/10 01:17:23;;;;;;;25.73;12.73;;;2.90;73.50;;;;;;5053320;28;20108;-64
2022/03/10 01:19:49;;;;;;;23.50;14.45;;;2.90;74.20;;;;;;5053717;28;20112;-64
2022/03/10 01:22:16;;;;;;;23.83;13.45;;;2.90;72.90;;;;;;5053214;28;20047;-64
2022/03/10 01:24:42;;;;;;;23.48;13.60;;;2.90;73.40;;;;;;5054649;28;20029;-65
2022/03/10 01:27:11;;;;;;;26.17;15.88;;;2.90;74.50;;;;;;5054846;28;20029;-64
2022/03/10 01:29:36;;;;;;;;;;;2.90;74.50;;;;;;5053463;28;20439;-64
2022/03/10 01:32:02;;;;;;;25.25;13.55;;;2.90;73.80;;;;;;5053551;28;19909;-63
2022/03/10 01:34:28;;;;;;;26.65;13.63;;;2.80;74.00;;;;;;5054214;28;20040;-63
2022/03/10 01:36:54;;;;;;;23.60;14.02;;;2.80;74.30;;;;;;5054391;28;20488;-64
2022/03/10 01:39:20;;;;;;;27.55;15.48;;;2.80;75.30;;;;;;5054323;28;20404;-64
2022/03/10 01:41:45;;;;;;;23.48;12.65;;;2.70;75.30;;;;;;5054215;28;20028;-64
2022/03/10 01:44:11;;;;;;;25.65;12.70;;;2.60;75.20;;;;;;5054100;28;20032;-63
2022/03/10 01:46:38;;;;;;;26.38;14.23;;;2.60;76.00;;;;;;5053041;28;20385;-64
2022/03/10 01:49:06;;;;;;;24.77;14.40;;;2.60;76.20;;;;;;5054230;28;20032;-64
2022/03/10 01:51:34;;;;;;;21.58;13.32;;;2.60;76.70;;;;;;5053045;28;20110;-64
2022/03/10 01:54:00;;;;;;;25.42;14.57;;;2.50;76.90;;;;;;5052640;28;20033;-63
2022/03/10 01:56:26;;;;;;;23.40;13.30;;;2.50;76.80;;;;;;5054194;28;20556;-64
2022/03/10 01:58:54;;;;;;;26.58;13.40;;;2.50;78.50;;;;;;5053757;28;20056;-63
2022/03/10 02:01:20;;;;;;;29.02;15.20;;;2.40;78.30;;;;;;5053955;28;20036;-64
2022/03/10 02:03:46;;;;;;;28.55;15.05;;;2.40;77.70;;;;;;5053957;28;20405;-64
2022/03/10 02:06:13;;;;;;;23.73;14.02;;;2.40;78.10;;;;;;5052690;28;20025;-64
2022/03/10 02:11:25;;;;;;;25.73;14.65;;;2.30;78.60;;;;;;5054170;28;20082;-64
2022/03/10 02:13:50;;;;;;;23.35;13.32;;;2.30;78.60;;;;;;5052566;28;20025;-64
2022/03/10 02:19:03;;;;;;;23.35;12.93;;;2.30;78.80;;;;;;5053912;28;20044;-64
2022/03/10 02:21:29;;;;;;;25.35;14.43;;;;;;;;;;5052379;28;20028;-64
2022/03/10 02:23:55;;;;;;;25.55;14.63;;;;;;;;;;5053351;28;20020;-64
2022/03/10 02:26:21;;;;;;;24.73;15.20;;;2.30;78.00;;;;;;5053480;28;20100;-65
2022/03/10 02:28:48;;;;;;;23.67;14.07;;;2.30;77.70;;;;;;5053420;28;20059;-61
2022/03/10 02:31:14;;;;;;;25.73;13.57;;;2.20;78.00;;;;;;5053390;28;20077;-64
2022/03/10 02:33:40;;;;;;;28.63;15.38;;;2.20;77.90;;;;;;5053648;28;20025;-64
2022/03/10 02:36:06;;;;;;;28.17;14.25;;;2.10;78.20;;;;;;5052548;28;20025;-65
2022/03/10 02:38:32;;;;;;;23.98;12.68;;;2.20;78.50;;;;;;5054295;28;20029;-65
2022/03/10 02:40:58;;;;;;;25.17;13.00;;;2.10;79.00;;;;;;5054662;28;20388;-64
2022/03/10 02:43:24;;;;;;;23.27;13.00;;;2.10;79.20;;;;;;5053912;28;20067;-64
2022/03/10 02:45:50;;;;;;;25.27;14.45;;;2.10;79.30;;;;;;5053476;28;20028;-64
2022/03/10 02:48:17;;;;;;;27.27;13.55;;;2.10;79.30;;;;;;5053611;28;20052;-62
2022/03/10 02:50:44;;;;;;;24.48;14.40;;;2.10;79.90;;;;;;5052735;28;20033;-64
2022/03/10 02:53:10;;;;;;;26.52;13.88;;;2.10;80.40;;;;;;5052667;28;20124;-64
2022/03/10 02:55:37;;;;;;;27.02;13.10;;;2.00;80.00;;;;;;5053317;28;20028;-65
2022/03/10 02:58:03;;;;;;;27.45;13.43;;;2.00;80.40;;;;;;5053409;28;20056;-64
2022/03/10 03:00:29;;;;;;;27.67;15.52;;;1.90;80.40;;;;;;5053310;28;20059;-64
2022/03/10 03:02:55;;;;;;;24.63;15.00;;;1.90;80.80;;;;;;5052886;28;20029;-64
2022/03/10 03:05:21;;;;;;;26.90;13.18;;;1.90;80.60;;;;;;5053614;28;20020;-63
2022/03/10 03:07:48;;;;;;;25.42;14.13;;;1.90;81.40;;;;;;5053620;28;20021;-64
2022/03/10 03:10:14;;;;;;;22.33;12.95;;;1.90;81.40;;;;;;5052058;28;20029;-64
2022/03/10 03:12:58;;;;;;;26.88;13.40;;;1.80;82.20;;;;;;5051581;28;20158;-65
2022/03/10 03:15:23;;;;;;;24.48;13.13;;;1.80;82.90;;;;;;5051146;28;20029;-64
2022/03/10 03:17:49;;;;;;;24.65;13.07;;;1.80;83.20;;;;;;5053230;28;20020;-64
2022/03/10 03:20:16;;;;;;;22.92;13.10;;;1.80;83.20;;;;;;5052509;28;20104;-64
2022/03/10 03:22:43;;;;;;;25.90;13.30;;;1.80;82.90;;;;;;5052803;28;20021;-64
2022/03/10 03:25:10;;;;;;;23.63;13.18;;;1.80;83.30;;;;;;5052732;28;20033;-64
2022/03/10 03:27:36;;;;;;;22.60;12.23;;;1.70;83.50;;;;;;5052651;28;20029;-64
2022/03/10 03:30:04;;;;;;;160.63;82.68;;;1.70;84.30;;;;;;5050915;28;20029;-64
2022/03/10 03:32:30;;;;;;;65.95;39.95;;;1.80;87.00;;;;;;5052222;28;20079;-64
2022/03/10 03:34:55;;;;;;;90.40;49.53;;;2.00;88.10;;;;;;5050778;28;20488;-64
2022/03/10 03:37:21;;;;;;;28.15;17.15;;;2.20;87.60;;;;;;5052304;28;20075;-61
2022/03/10 03:39:47;;;;;;;23.45;12.88;;;2.20;85.80;;;;;;5051983;28;20031;-65
2022/03/10 03:42:12;;;;;;;24.65;13.48;;;2.10;84.40;;;;;;5052032;28;20017;-64
2022/03/10 03:44:38;;;;;;;26.52;14.18;;;2.00;84.20;;;;;;5051810;28;20021;-64
2022/03/10 03:47:03;;;;;;;25.13;13.70;;;1.90;84.30;;;;;;5051945;28;20063;-64
2022/03/10 03:49:29;;;;;;;29.27;13.38;;;1.80;84.90;;;;;;5051850;28;20025;-64
2022/03/10 03:51:54;;;;;;;25.42;14.48;;;1.70;84.90;;;;;;5052108;28;20021;-65
2022/03/10 03:54:20;;;;;;;26.55;14.27;;;1.60;85.80;;;;;;5051719;28;20485;-62
2022/03/10 03:56:45;;;;;;;25.52;13.55;;;1.60;86.20;;;;;;5051838;28;20355;-62
2022/03/10 03:59:11;;;;;;;26.23;13.98;;;1.60;86.10;;;;;;5051778;28;20061;-62
2022/03/10 04:01:37;;;;;;;26.25;13.63;;;;;;;;;;5051837;28;20029;-63
2022/03/10 04:04:03;;;;;;;24.63;14.25;;;;;;;;;;5050268;28;20027;-63
2022/03/10 04:06:29;;;;;;;27.13;13.95;;;;;;;;;;5051903;28;20025;-62
2022/03/10 04:08:55;;;;;;;22.58;12.85;;;;;;;;;;5051452;28;20025;-62
2022/03/10 04:11:21;;;;;;;23.20;13.90;;;;;;;;;;5051658;28;20021;-62
2022/03/10 04:13:47;;;;;;;28.08;14.25;;;;;;;;;;5051595;28;20033;-62
2022/03/10 04:16:13;;;;;;;40.45;14.30;;;;;;;;;;5051911;28;20021;-63
2022/03/10 04:18:39;;;;;;;25.15;13.25;;;;;;;;;;5051594;28;20044;-63
2022/03/10 04:21:06;;;;;;;25.42;13.85;;;;;;;;;;5051567;28;20036;-63
2022/03/10 04:23:32;;;;;;;25.50;14.48;;;;;;;;;;5050249;28;20049;-63
2022/03/10 04:25:58;;;;;;;26.08;14.60;;;;;;;;;;5051520;28;20059;-64
2022/03/10 04:28:24;;;;;;;24.60;13.45;;;;;;;;;;5051457;28;20033;-63
2022/03/10 04:30:50;;;;;;;24.75;14.13;;;;;;;;;;5051344;28;20033;-63
2022/03/10 04:33:17;;;;;;;26.23;14.35;;;;;;;;;;5051480;28;20033;-63
2022/03/10 04:35:43;;;;;;;26.65;13.73;;;;;;;;;;5051572;28;20033;-59
2022/03/10 04:38:10;;;;;;;26.02;14.13;;;;;;;;;;5051399;28;20029;-63
2022/03/10 04:40:37;;;;;;;24.77;13.93;;;;;;;;;;5049680;28;20251;-63
2022/03/10 04:43:03;;;;;;;23.95;13.60;;;;;;;;;;5049936;28;20021;-64
2022/03/10 04:45:29;;;;;;;22.40;14.98;;;;;;;;;;5050027;28;20108;-63
2022/03/10 04:47:55;;;;;;;23.20;13.23;;;;;;;;;;5051363;28;20104;-63
2022/03/10 04:50:21;;;;;;;24.55;14.30;;;;;;;;;;5051174;28;20028;-64
2022/03/10 04:52:47;;;;;;;30.60;15.10;;;;;;;;;;5051173;28;20029;-65
2022/03/10 04:55:13;;;;;;;29.08;14.90;;;;;;;;;;5051171;28;20095;-62
2022/03/10 04:57:40;;;;;;;24.30;13.60;;;;;;;;;;5051128;28;20432;-64
2022/03/10 05:00:16;;;;;;;27.95;14.20;;;;;;;;;;5051001;28;20032;-64
2022/03/10 05:02:42;;;;;;;25.77;13.93;;;;;;;;;;5051241;28;20066;-62
2022/03/10 05:05:10;;;;;;;25.92;15.75;;;;;;;;;;5050026;28;20017;-63
2022/03/10 05:07:36;;;;;;;24.43;14.13;;;;;;;;;;5052498;28;20075;-61
2022/03/10 05:10:02;;;;;;;26.15;14.70;;;;;;;;;;5054623;28;20279;-63
2022/03/10 05:12:28;;;;;;;28.08;15.48;;;;;;;;;;5053516;28;20534;-62
2022/03/10 05:14:54;;;;;;;26.50;13.85;;;;;;;;;;5054729;28;20393;-63
2022/03/10 05:17:21;;;;;;;24.35;13.68;;;;;;;;;;5054601;28;20025;-63
2022/03/10 05:19:47;;;;;;;26.27;13.95;;;;;;;;;;5054437;28;20033;-63
2022/03/10 05:22:13;;;;;;;27.90;13.38;;;;;;;;;;5054579;28;20017;-63
2022/03/10 05:24:39;;;;;;;25.83;14.70;;;;;;;;;;5053112;28;20116;-64
2022/03/10 05:27:05;;;;;;;27.05;14.65;;;;;;;;;;5054280;28;20032;-63
2022/03/10 05:29:31;;;;;;;26.08;14.15;;;;;;;;;;5054334;28;20017;-64
2022/03/10 05:31:57;;;;;;;27.10;14.38;;;;;;;;;;5054237;28;20021;-63
2022/03/10 05:34:23;;;;;;;26.73;14.18;;;;;;;;;;5054086;28;20025;-62
2022/03/10 05:36:49;;;;;;;28.77;15.40;;;;;;;;;;5052954;28;20393;-63
2022/03/10 05:39:15;;;;;;;29.23;14.32;;;;;;;;;;5052748;28;20025;-63
2022/03/10 05:41:41;;;;;;;31.38;15.43;;;;;;;;;;5054305;28;20028;-62
2022/03/10 05:44:07;;;;;;;33.92;16.67;;;;;;;;;;5052795;28;20366;-64
2022/03/10 05:46:33;;;;;;;25.42;14.75;;;;;;;;;;5054243;28;20024;-62
2022/03/10 05:48:59;;;;;;;26.60;15.63;;;;;;;;;;5054590;28;20435;-63
2022/03/10 05:51:25;;;;;;;29.67;14.85;;;;;;;;;;5054011;28;20115;-63
2022/03/10 05:53:51;;;;;;;26.58;15.90;;;;;;;;;;5054123;28;20481;-63
2022/03/10 05:56:17;;;;;;;31.35;14.75;;;;;;;;;;5053736;28;20036;-64
2022/03/10 05:58:43;;;;;;;33.63;15.52;;;;;;;;;;5053832;28;20076;-63
2022/03/10 06:01:11;;;;;;;26.92;13.38;;;;;;;;;;5053557;28;20489;-65
2022/03/10 06:03:37;;;;;;;28.90;14.88;;;;;;;;;;5053652;28;20076;-64
2022/03/10 06:06:02;;;;;;;30.38;15.75;;;;;;;;;;5054668;28;20350;-63
2022/03/10 06:08:29;;;;;;;33.20;14.25;;;;;;;;;;5054332;28;20025;-63
2022/03/10 06:10:55;;;;;;;29.52;15.82;;;;;;;;;;5052687;28;20109;-63
2022/03/10 06:13:21;;;;;;;32.35;15.90;;;;;;;;;;5053932;28;20057;-64
2022/03/10 06:15:47;;;;;;;25.60;13.88;;;;;;;;;;5052221;28;20072;-63
2022/03/10 06:18:13;;;;;;;29.08;14.43;;;;;;;;;;5053527;28;20021;-64
2022/03/10 06:20:40;;;;;;;26.67;13.52;;;;;;;;;;5051731;28;20037;-63
2022/03/10 06:23:06;;;;;;;32.60;15.77;;;;;;;;;;5053433;28;20205;-63
2022/03/10 06:25:32;;;;;;;35.15;15.48;;;;;;;;;;5053373;28;20480;-65
2022/03/10 06:27:58;;;;;;;26.33;14.45;;;;;;;;;;5053400;28;20027;-64
2022/03/10 06:30:24;;;;;;;27.23;13.25;;;;;;;;;;5054050;28;20120;-63
2022/03/10 06:32:50;;;;;;;28.10;15.68;;;;;;;;;;5053556;28;20057;-65
2022/03/10 06:35:16;;;;;;;31.45;14.50;;;;;;;;;;5051981;28;20025;-63
2022/03/10 06:37:42;;;;;;;28.80;13.23;;;;;;;;;;5053257;28;20024;-64
2022/03/10 06:40:08;;;;;;;28.75;14.65;;;;;;;;;;5051556;28;20032;-63
2022/03/10 06:42:35;;;;;;;29.58;15.13;;;;;;;;;;5053642;28;20099;-64
2022/03/10 06:45:00;;;;;;;28.77;14.70;;;;;;;;;;5053061;28;20021;-65
2022/03/10 06:47:27;;;;;;;26.58;14.07;;;;;;;;;;5054288;28;20028;-63
2022/03/10 06:49:52;;;;;;;26.35;15.32;;;;;;;;;;5054374;28;20017;-64
2022/03/10 06:52:20;;;;;;;26.23;14.43;;;;;;;;;;5053931;28;20521;-64
2022/03/10 06:54:46;;;;;;;31.65;14.27;;;;;;;;;;5052262;22;20072;-60
2022/03/10 06:57:12;;;;;;;25.02;15.00;;;;;;;;;;5032746;28;20052;-57
2022/03/10 06:59:38;;;;;;;31.00;15.57;;;;;;;;;;5032572;28;20048;-60
2022/03/10 07:02:04;;;;;;;28.20;15.35;;;1.50;86.30;;;;;;5032834;28;20465;-61
2022/03/10 07:04:31;;;;;;;28.83;14.55;;;2.70;93.00;;;;;;5032662;28;20029;-60
2022/03/10 07:06:56;;;;;;;27.05;14.18;;;2.80;92.70;;;;;;5032765;28;20048;-62
2022/03/10 07:09:22;;;;;;;27.10;15.00;;;2.90;92.30;;;;;;5032208;28;20033;-60
2022/03/10 07:11:47;;;;;;;25.95;14.48;;;2.90;92.10;;;;;;5014606;28;20029;-61
2022/03/10 07:14:13;;;;;;;28.20;15.35;;;3.00;92.00;;;;;;5032311;28;20476;-60
2022/03/10 07:16:40;;;;;;;27.30;15.15;;;3.10;91.90;;;;;;5032341;28;20056;-62
2022/03/10 07:19:09;;;;;;;31.60;17.20;;;3.10;91.70;;;;;;5032146;28;20025;-61
2022/03/10 07:21:40;;;;;;;28.08;16.40;;;3.20;91.60;;;;;;5015021;28;20025;-60
2022/03/10 07:24:06;;;;;;;28.88;15.68;;;3.30;91.40;;;;;;5032422;28;20128;-61
2022/03/10 07:26:32;;;;;;;25.73;15.27;;;3.30;91.00;;;;;;5032960;28;20497;-62
2022/03/10 07:28:59;;;;;;;23.90;13.55;;;3.40;91.10;;;;;;5033032;28;20036;-60
2022/03/10 07:31:27;;;;;;;32.15;16.15;;;3.50;91.20;;;;;;5015658;28;20025;-62
2022/03/10 07:33:53;;;;;;;28.17;14.95;;;3.60;91.10;;;;;;5032516;28;20099;-62
2022/03/10 07:36:19;;;;;;;27.52;16.65;;;;;;;;;;5032336;28;20486;-62
2022/03/10 07:38:44;;;;;;;26.05;14.68;;;3.70;90.80;;;;;;5032616;28;20025;-61
2022/03/10 07:41:10;;;;;;;25.70;14.75;;;3.80;90.20;;;;;;5014002;28;20025;-62
2022/03/10 07:43:36;;;;;;;25.52;16.05;;;3.90;90.40;;;;;;5014719;28;20026;-60
2022/03/10 07:46:04;;;;;;;28.05;15.50;;;4.00;90.10;;;;;;5014462;28;20040;-61
2022/03/10 07:48:31;;;;;;;27.83;16.00;;;4.10;90.20;;;;;;5032306;28;20021;-61
2022/03/10 07:50:56;;;;;;;30.65;16.00;;;4.20;90.10;;;;;;5015041;28;20025;-62
2022/03/10 07:53:22;;;;;;;25.80;15.45;;;4.20;90.10;;;;;;5032311;28;20045;-61
2022/03/10 07:55:50;;;;;;;32.35;16.27;;;4.30;90.00;;;;;;5014504;28;20030;-57
2022/03/10 07:58:15;;;;;;;25.67;15.07;;;4.40;89.30;;;;;;5014313;28;20493;-61
2022/03/10 08:00:41;;;;;;;31.48;15.27;;;4.50;88.90;;;;;;5014287;28;20254;-60
2022/03/10 08:03:07;;;;;;;26.25;15.13;;;4.60;88.50;;;;;;5032223;28;20025;-61
2022/03/10 08:05:34;;;;;;;26.23;15.13;;;4.80;88.10;;;;;;5032833;28;20100;-61
2022/03/10 08:08:01;;;;;;;24.25;15.70;;;4.90;87.20;;;;;;5032015;28;20025;-61
2022/03/10 08:10:27;;;;;;;31.23;15.00;;;5.00;86.60;;;;;;5013660;28;20026;-62
2022/03/10 08:12:52;;;;;;;27.90;16.98;;;5.10;85.70;;;;;;5032256;28;20025;-61
2022/03/10 08:15:20;;;;;;;26.75;14.32;;;5.20;84.80;;;;;;5014222;28;20026;-61
2022/03/10 08:17:46;;;;;;;33.15;18.02;;;5.30;84.70;;;;;;5014320;28;20087;-62
2022/03/10 08:20:12;;;;;;;28.67;16.20;;;5.40;83.60;;;;;;5014109;28;20481;-62
2022/03/10 08:22:38;;;;;;;28.40;15.93;;;5.50;82.90;;;;;;5031713;28;20037;-63
2022/03/10 08:25:04;;;;;;;27.60;15.40;;;5.60;83.00;;;;;;5031995;28;20022;-62
2022/03/10 08:27:30;;;;;;;32.20;16.92;;;5.70;82.10;;;;;;5013916;28;20087;-62
2022/03/10 08:29:56;;;;;;;24.10;14.15;;;;;;;;;;5031760;28;20029;-63
2022/03/10 08:32:25;;;;;;;26.08;14.93;;;5.90;81.40;;;;;;5031396;28;20033;-62
2022/03/10 08:34:51;;;;;;;35.47;16.55;;;6.10;80.00;;;;;;5013872;28;20026;-63
2022/03/10 08:37:19;;;;;;;24.35;14.40;;;6.20;80.10;;;;;;5031802;28;20025;-60
2022/03/10 08:39:45;;;;;;;24.70;14.23;;;6.40;79.00;;;;;;5031258;28;20119;-63
2022/03/10 08:42:10;;;;;;;24.50;14.65;;;6.50;79.00;;;;;;5014577;28;20124;-62
2022/03/10 08:44:37;;;;;;;25.80;14.50;;;6.60;78.00;;;;;;5010712;28;20385;-62
2022/03/10 08:47:03;;;;;;;24.35;14.63;;;6.70;78.30;;;;;;5022009;28;20030;-62
2022/03/10 08:49:28;;;;;;;25.90;14.55;;;6.80;77.30;;;;;;5054890;28;20371;-63
2022/03/10 08:51:55;;;;;;;33.17;15.95;;;6.90;77.60;;;;;;5049664;28;20060;-62
2022/03/10 08:54:21;;;;;;;23.92;14.77;;;;;;;;;;5034847;28;20409;-61
2022/03/10 08:56:47;;;;;;;25.05;14.98;;;;;;;;;;5035286;28;20030;-62
2022/03/10 08:59:13;;;;;;;24.45;14.10;;;7.20;76.00;;;;;;5017679;28;20036;-62
2022/03/10 09:01:39;;;;;;;27.50;15.60;;;7.50;75.60;;;;;;5050000;28;20025;-62
2022/03/10 09:04:05;;;;;;;27.23;14.48;;;;;;;;;;5054757;28;20021;-62
2022/03/10 09:06:32;;;;;;;24.23;14.63;;;;;;;;;;5036555;28;20112;-64
2022/03/10 09:08:58;;;;;;;28.35;16.08;;;7.60;75.00;;;;;;5054828;28;20025;-62
2022/03/10 09:11:24;;;;;;;26.90;15.00;;;8.00;73.60;;;;;;5036957;28;20370;-62
2022/03/10 09:13:50;;;;;;;27.65;15.75;;;8.10;74.60;;;;;;5054591;28;20036;-60
2022/03/10 09:16:18;;;;;;;25.52;16.42;;;8.30;73.40;;;;;;5055037;28;20550;-60
2022/03/10 09:18:45;;;;;;;26.73;16.00;;;8.40;73.50;;;;;;5039649;28;20025;-60
2022/03/10 09:21:11;;;;;;;29.95;16.45;;;8.60;73.10;;;;;;5016827;28;20287;-59
2022/03/10 09:23:37;;;;;;;25.10;14.80;;;8.70;73.20;;;;;;5034577;28;20017;-59
2022/03/10 09:26:03;;;;;;;27.70;15.50;;;8.70;72.50;;;;;;5016391;28;20149;-59
2022/03/10 09:28:29;;;;;;;26.63;16.27;;;8.80;72.30;;;;;;5034465;28;20488;-60
2022/03/10 09:30:54;;;;;;;28.50;15.25;;;9.00;72.70;;;;;;5034345;28;20390;-61
2022/03/10 09:33:20;;;;;;;24.15;14.95;;;9.10;72.10;;;;;;5034372;28;20025;-59
2022/03/10 09:35:48;;;;;;;25.98;14.80;;;9.20;72.20;;;;;;5016419;28;20025;-60
2022/03/10 09:38:15;;;;;;;23.80;14.77;;;9.30;71.90;;;;;;5034391;28;20104;-61
2022/03/10 09:40:41;;;;;;;31.60;15.18;;;9.50;71.40;;;;;;5016378;28;20037;-59
2022/03/10 09:43:06;;;;;;;24.95;15.95;;;9.60;71.30;;;;;;5034496;28;20025;-60
2022/03/10 09:45:35;;;;;;;22.88;14.85;;;9.80;71.20;;;;;;5016454;28;20486;-60
2022/03/10 09:48:01;;;;;;;27.13;15.77;;;9.90;70.90;;;;;;4683471;28;9999799;-63
2022/03/10 09:50:27;;;;;;;28.08;16.92;;;10.00;71.80;;;;;;5031300;28;20030;-59
2022/03/10 09:52:53;;;;;;;26.02;15.30;;;10.20;70.60;;;;;;5031146;28;20035;-63
2022/03/10 09:55:19;;;;;;;26.10;16.60;;;10.30;69.10;;;;;;5031667;28;20060;-61
2022/03/10 09:57:46;;;;;;;24.83;16.13;;;10.40;68.50;;;;;;5013680;28;20037;-60
2022/03/10 10:00:14;;;;;;;25.50;15.60;;;10.60;68.70;;;;;;5031160;28;20051;-63
2022/03/10 10:02:41;;;;;;;25.70;15.52;;;10.70;68.70;;;;;;5013466;28;20025;-62
2022/03/10 10:05:31;;;;;;;26.92;16.90;;;10.80;69.80;;;;;;5031285;28;20090;-62
2022/03/10 10:08:15;;;;;;;28.60;15.60;;;11.00;66.60;;;;;;5013676;28;20401;-63
2022/03/10 10:10:49;;;;;;;26.50;16.05;;;11.20;66.80;;;;;;5013923;28;20030;-65
2022/03/10 10:13:29;;;;;;;26.20;16.27;;;11.30;67.80;;;;;;5013377;28;20060;-64
2022/03/10 10:15:56;;;;;;;24.85;15.77;;;11.40;66.80;;;;;;5032619;28;20100;-65
2022/03/10 10:18:22;;;;;;;28.45;19.02;;;11.60;67.00;;;;;;5014038;28;20099;-65
2022/03/10 10:20:50;;;;;;;27.48;16.77;;;11.70;66.10;;;;;;5009237;28;20060;-64
2022/03/10 10:23:27;;;;;;;25.27;15.73;;;11.90;64.40;;;;;;5025114;28;20022;-65
2022/03/10 10:26:04;;;;;;;25.88;17.27;;;11.90;63.30;;;;;;5030847;28;20033;-65
2022/03/10 10:28:34;;;;;;;24.55;17.15;;;12.10;64.00;;;;;;5038906;28;20028;-65
2022/03/10 10:31:03;;;;;;;25.23;16.42;;;12.20;63.60;;;;;;5033168;28;20036;-65
2022/03/10 10:33:32;;;;;;;27.35;17.25;;;12.30;62.50;;;;;;5051221;28;20103;-65
2022/03/10 10:36:24;;;;;;;36.67;17.13;;;12.50;62.20;;;;;;5052458;28;20112;-65
2022/03/10 10:39:11;;;;;;;99.82;68.32;;;12.70;61.20;;;;;;5052193;28;20029;-64
2022/03/10 10:41:39;;;;;;;28.33;18.27;;;12.90;60.90;;;;;;5035286;28;20041;-68
2022/03/10 10:44:15;;;;;;;26.00;16.40;;;12.90;60.90;;;;;;5048876;28;20028;-67
2022/03/10 10:46:43;;;;;;;28.55;18.27;;;12.90;58.50;;;;;;5035783;28;20113;-67
2022/03/10 10:49:17;;;;;;;25.17;16.30;;;13.10;59.40;;;;;;5026401;28;20097;-67
2022/03/10 10:51:45;;;;;;;27.08;17.98;;;13.30;59.00;;;;;;5033683;28;20029;-67
2022/03/10 10:54:23;;;;;;;26.10;16.33;;;13.40;56.20;;;;;;5015910;28;20548;-67
2022/03/10 10:57:01;;;;;;;24.37;16.17;;;13.50;55.80;;;;;;5037388;28;20034;-67
2022/03/10 10:59:40;;;;;;;24.25;15.98;;;13.50;55.40;;;;;;5040699;28;20803;-67
2022/03/10 11:02:16;;;;;;;25.73;16.23;;;13.60;55.10;;;;;;5054157;28;20037;-67
2022/03/10 11:04:45;;;;;;;25.42;15.57;;;13.70;54.60;;;;;;5053861;28;20029;-67
2022/03/10 11:07:12;;;;;;;26.50;15.77;;;13.70;54.60;;;;;;5053966;28;20094;-68
2022/03/10 11:12:59;;;;;;;25.23;16.35;;;14.00;54.30;;;;;;5053067;28;20082;-67
2022/03/10 11:15:25;;;;;;;25.10;15.55;;;14.30;54.00;;;;;;5053457;28;20112;-67
2022/03/10 11:17:51;;;;;;;26.55;16.13;;;15.00;53.30;;;;;;5051547;28;20447;-66
2022/03/10 11:20:17;;;;;;;21.77;15.38;;;15.70;51.30;;;;;;5015404;28;20044;-67
2022/03/10 11:22:52;;;;;;;23.75;14.77;;;16.50;51.20;;;;;;5014625;28;20053;-65
2022/03/10 11:25:45;;;;;;;23.83;14.75;;;17.20;49.50;;;;;;5032038;28;20029;-65
2022/03/10 11:28:15;;;;;;;21.70;14.75;;;17.70;49.80;;;;;;5013736;28;20513;-66
2022/03/10 11:30:41;;;;;;;22.67;16.15;;;18.30;47.30;;;;;;5035385;28;20021;-65
2022/03/10 11:33:17;;;;;;;25.48;16.30;;;18.50;47.90;;;;;;5023363;28;20150;-65
2022/03/10 11:35:46;;;;;;;28.60;17.92;;;19.20;46.50;;;;;;5020815;28;20066;-65
2022/03/10 11:38:13;;;;;;;24.10;15.98;;;19.60;45.00;;;;;;5051911;28;20126;-64
2022/03/10 11:40:46;;;;;;;22.58;15.23;;;19.80;45.50;;;;;;5034544;28;20036;-65
2022/03/10 11:43:18;;;;;;;24.73;15.63;;;20.20;44.60;;;;;;5052610;28;20400;-65
2022/03/10 11:45:44;;;;;;;22.35;14.93;;;20.00;44.20;;;;;;5034469;28;20033;-67
2022/03/10 11:48:28;;;;;;;20.00;15.10;;;20.20;44.40;;;;;;5034035;28;20480;-67
2022/03/10 11:50:55;;;;;;;29.35;15.68;;;20.00;43.10;;;;;;5016905;28;20117;-67
2022/03/10 11:53:21;;;;;;;21.45;14.68;;;20.10;43.40;;;;;;5031741;28;20434;-64
2022/03/10 11:55:52;;;;;;;20.33;14.80;;;20.10;44.30;;;;;;5014718;28;20029;-67
2022/03/10 11:58:19;;;;;;;21.50;13.52;;;20.20;42.90;;;;;;5015071;28;20555;-67
2022/03/10 12:00:51;;;;;;;20.42;13.90;;;20.40;43.40;;;;;;5032721;28;20025;-66
2022/03/10 12:03:36;;;;;;;20.88;15.02;;;20.60;43.50;;;;;;5032750;28;20075;-65
2022/03/10 12:06:03;;;;;;;19.83;14.60;;;21.10;43.30;;;;;;5014269;28;20025;-66
2022/03/10 12:08:35;;;;;;;21.20;14.32;;;20.80;42.30;;;;;;5032405;28;20433;-66
2022/03/10 12:11:02;;;;;;;20.77;14.02;;;21.30;43.70;;;;;;5015033;28;20021;-67
2022/03/10 12:13:36;;;;;;;19.00;13.75;;;21.80;43.00;;;;;;5032678;28;20052;-66
2022/03/10 12:16:07;;;;;;;20.67;14.98;;;21.70;42.90;;;;;;5014940;28;20037;-66
2022/03/10 12:18:39;;;;;;;22.08;17.45;;;21.40;43.20;;;;;;5018365;28;20029;-65
2022/03/10 12:21:21;;;;;;;20.08;14.88;;;21.80;43.10;;;;;;5036028;28;20473;-66
2022/03/10 12:24:00;;;;;;;20.95;14.32;;;22.10;42.90;;;;;;5036411;28;20032;-67
2022/03/10 12:26:25;;;;;;;;;;;22.00;42.40;;;;;;5018965;28;20021;-66
2022/03/10 12:28:54;;;;;;;23.00;15.40;;;22.10;43.00;;;;;;5018537;28;19984;-68
2022/03/10 12:31:24;;;;;;;21.75;14.70;;;22.80;41.90;;;;;;5036569;28;20511;-68
2022/03/10 12:33:50;;;;;;;20.58;14.98;;;22.90;42.10;;;;;;5036586;28;20028;-69
2022/03/10 12:36:30;;;;;;;21.08;14.98;;;23.20;42.00;;;;;;4664116;28;9999673;-68
2022/03/10 12:38:58;;;;;;;21.50;15.85;;;23.30;41.10;;;;;;5016289;28;20026;-65
2022/03/10 12:41:28;;;;;;;20.02;15.32;;;24.20;40.60;;;;;;5015683;28;20050;-67
2022/03/10 12:43:54;;;;;;;21.33;15.10;;;24.40;40.90;;;;;;5016391;28;20026;-64
2022/03/10 12:46:21;;;;;;;19.67;15.38;;;24.50;40.20;;;;;;5016614;28;20085;-68
2022/03/10 12:48:54;;;;;;;19.45;14.93;;;24.60;40.20;;;;;;5016431;28;20549;-63
2022/03/10 12:51:22;;;;;;;21.17;16.33;;;23.80;39.70;;;;;;5015772;28;20374;-64
2022/03/10 12:53:48;;;;;;;20.95;15.85;;;24.20;40.00;;;;;;4998144;28;20100;-67
2022/03/10 12:56:13;;;;;;;20.73;15.45;;;24.40;39.90;;;;;;4998473;28;20037;-69
2022/03/10 12:58:39;;;;;;;19.77;14.93;;;24.50;40.10;;;;;;4998229;28;20083;-67
2022/03/10 13:01:08;;;;;;;19.55;15.40;;;24.60;39.70;;;;;;4997628;28;20030;-65
2022/03/10 13:03:54;;;;;;;20.50;15.38;;;24.90;39.40;;;;;;5046231;23;20071;-62
2022/03/10 13:06:26;;;;;;;20.60;16.48;;;24.90;39.80;;;;;;5031599;28;20068;-61
2022/03/10 13:08:55;;;;;;;20.63;15.23;;;25.00;39.20;;;;;;5031107;28;20400;-60